Time;durP1;ratioP1;P1;durP2;ratioP2;P2;SDS_P1;SDS_P2;PMS_P1;PMS_P2;Temp;Humidity;BMP_temperature;BMP_pressure;BME280_temperature;BME280_humidity;BME280_pressure;Samples;Min_cycle;Max_cycle;Signal;HPM_P1;HPM_P2
2022/12/17 13:13:55;;;;;;;0.20;0.10;;;15.40;99.90;;;;;;21235222;27;20460;-72
2022/12/17 13:24:10;;;;;;;0.20;0.10;;;15.20;99.90;;;;;;21216742;27;20400;-78
2022/12/17 13:34:24;;;;;;;0.20;0.10;;;14.90;99.90;;;;;;21235624;27;20401;-75
2022/12/17 13:44:36;;;;;;;0.20;0.10;;;15.40;99.90;;;;;;21197498;27;20417;-75
2022/12/17 13:54:43;;;;;;;0.20;0.03;;;17.60;99.90;;;;;;21215820;27;20437;-75
2022/12/17 14:04:53;;;;;;;0.20;0.08;;;18.10;99.90;;;;;;21232632;27;20393;-75
2022/12/17 14:15:01;;;;;;;0.20;0.00;;;18.20;99.90;;;;;;21216149;27;20406;-73
2022/12/17 14:25:14;;;;;;;0.20;0.10;;;18.70;99.90;;;;;;21140913;28;20447;-73
2022/12/17 14:35:27;;;;;;;0.20;0.10;;;19.60;99.90;;;;;;21119514;28;20419;-74
2022/12/17 14:46:19;;;;;;;0.20;0.00;;;19.20;99.90;;;;;;21138465;28;20890;-78
2022/12/17 14:56:00;;;;;;;0.20;0.00;;;17.00;99.90;;;;;;21116762;28;20399;-75
2022/12/17 15:06:07;;;;;;;0.20;0.10;;;16.50;99.90;;;;;;21138967;28;20402;-76
2022/12/17 15:16:13;;;;;;;0.20;0.10;;;17.00;99.90;;;;;;21178614;28;20803;-75
2022/12/17 15:26:18;;;;;;;0.20;0.00;;;17.50;99.90;;;;;;21225317;28;20886;-72
2022/12/17 15:36:23;;;;;;;0.20;0.10;;;18.40;99.90;;;;;;21206112;28;20476;-75
2022/12/17 15:46:28;;;;;;;0.20;0.10;;;17.70;99.90;;;;;;21204962;28;21088;-75
2022/12/17 15:56:36;;;;;;;0.20;0.10;;;15.90;99.90;;;;;;21204957;28;21118;-75
2022/12/17 16:06:39;;;;;;;0.20;0.10;;;15.20;99.90;;;;;;21235802;27;20500;-77
2022/12/17 16:16:45;;;;;;;0.20;0.10;;;14.70;99.90;;;;;;21218278;27;20484;-77
2022/12/17 16:26:49;;;;;;;0.20;0.00;;;14.00;99.90;;;;;;21218520;27;20437;-74
2022/12/17 16:36:54;;;;;;;0.20;0.10;;;13.70;99.90;;;;;;21216696;27;20925;-75
2022/12/17 16:46:58;;;;;;;0.20;0.10;;;13.50;99.90;;;;;;21216391;27;20415;-78
2022/12/17 16:57:04;;;;;;;0.20;0.00;;;12.90;99.90;;;;;;21234418;27;20471;-75
2022/12/17 17:07:08;;;;;;;0.20;0.00;;;12.60;99.90;;;;;;21231958;27;20416;-75
2022/12/17 17:17:13;;;;;;;0.20;0.10;;;12.50;99.90;;;;;;21230457;27;20412;-77
2022/12/17 17:27:18;;;;;;;0.20;0.00;;;12.40;99.90;;;;;;21157820;27;20406;-77
2022/12/17 17:37:23;;;;;;;0.20;0.10;;;12.30;99.90;;;;;;21150361;28;20406;-77
2022/12/17 17:47:28;;;;;;;0.20;0.00;;;12.30;99.90;;;;;;21149622;28;20421;-78
2022/12/17 17:57:34;;;;;;;0.20;0.10;;;12.20;99.90;;;;;;21149213;28;20474;-76
2022/12/17 18:07:38;;;;;;;0.20;0.10;;;11.80;99.90;;;;;;21147598;28;20850;-76
2022/12/17 18:17:44;;;;;;;0.20;0.10;;;11.30;99.90;;;;;;21120965;28;20877;-77
2022/12/17 18:27:51;;;;;;;0.20;0.10;;;11.10;99.90;;;;;;21113572;28;20414;-77
2022/12/17 18:37:56;;;;;;;0.20;0.10;;;11.00;99.90;;;;;;21149860;28;20433;-78
2022/12/17 18:48:00;;;;;;;0.20;0.10;;;11.00;99.90;;;;;;21128795;28;20450;-78
2022/12/17 18:58:05;;;;;;;0.20;0.10;;;11.30;99.90;;;;;;21122869;28;20958;-75
2022/12/17 19:08:09;;;;;;;0.20;0.10;;;11.40;99.90;;;;;;21139763;28;20417;-78
2022/12/17 19:18:15;;;;;;;0.20;0.10;;;11.40;99.90;;;;;;21212923;28;20392;-77
2022/12/17 19:28:19;;;;;;;0.20;0.00;;;11.00;99.90;;;;;;21204706;28;20411;-80
2022/12/17 19:38:25;;;;;;;0.20;0.10;;;11.00;99.90;;;;;;21130183;28;20401;-77
2022/12/17 19:48:31;;;;;;;0.20;0.10;;;11.00;99.90;;;;;;21134739;28;20399;-75
2022/12/17 19:58:36;;;;;;;0.20;0.00;;;10.90;99.90;;;;;;21135469;28;20482;-78
2022/12/17 20:08:40;;;;;;;0.20;0.00;;;10.90;99.90;;;;;;21108818;28;21404;-78
2022/12/17 20:18:46;;;;;;;0.20;0.07;;;11.00;99.90;;;;;;21115914;28;20440;-79
2022/12/17 20:28:55;;;;;;;0.20;0.08;;;11.00;99.90;;;;;;21150561;28;20431;-76
2022/12/17 20:39:01;;;;;;;0.20;0.00;;;10.70;99.90;;;;;;21150317;28;20773;-76
2022/12/17 20:49:05;;;;;;;0.20;0.10;;;10.60;99.90;;;;;;21146746;28;20726;-78
2022/12/17 20:59:16;;;;;;;0.20;0.10;;;10.00;99.90;;;;;;21146574;28;20398;-78
2022/12/17 21:09:21;;;;;;;0.20;0.00;;;10.00;99.90;;;;;;21143133;28;20402;-75
2022/12/17 21:19:27;;;;;;;0.20;0.10;;;9.60;99.90;;;;;;21151164;28;20399;-73
2022/12/17 21:29:31;;;;;;;0.20;0.10;;;9.50;99.90;;;;;;21126110;28;20442;-75
2022/12/17 21:39:36;;;;;;;0.20;0.00;;;9.70;99.90;;;;;;21140842;28;20405;-78
2022/12/17 21:49:40;;;;;;;0.20;0.10;;;9.80;99.90;;;;;;21130954;28;20897;-76
2022/12/17 21:59:45;;;;;;;0.20;0.10;;;9.20;99.90;;;;;;21148065;28;20497;-76
2022/12/17 22:09:50;;;;;;;0.20;0.00;;;9.10;99.90;;;;;;21148655;27;20410;-76
2022/12/17 22:20:16;;;;;;;0.20;0.10;;;9.00;99.90;;;;;;21129038;28;20456;-73
2022/12/17 22:40:44;;;;;;;0.20;0.10;;;9.30;99.90;;;;;;21126462;28;20391;-76
2022/12/17 22:51:10;;;;;;;0.20;0.10;;;8.90;99.90;;;;;;21125894;28;20425;-76
2022/12/17 23:01:26;;;;;;;0.20;0.10;;;9.10;99.90;;;;;;21125769;28;20385;-76
2022/12/17 23:11:30;;;;;;;0.20;0.00;;;9.70;99.90;;;;;;21110138;28;20566;-75
2022/12/17 23:21:36;;;;;;;0.20;0.10;;;9.70;99.90;;;;;;21075725;28;20393;-77
2022/12/17 23:31:43;;;;;;;0.20;0.00;;;9.90;99.90;;;;;;21069763;28;20484;-77
2022/12/17 23:41:48;;;;;;;0.20;0.10;;;9.70;99.90;;;;;;21068611;28;20399;-76
2022/12/17 23:51:52;;;;;;;0.20;0.10;;;9.80;99.90;;;;;;21075743;28;20412;-78
